ZWWW/URC METAR and TAF weather

Enter ICAO airport designator
Station Type Date Time Source
ZWWW METAR 2024/06/14 21:00 UTC NOAA

ZWWW 142100Z VRB01MPS CAVOK 21/13 Q1010 NOSIG


Station Type Date Time Source
ZWWW Decoded METAR 2024/06/14 21:00 UTC NOAA

Urum-Qi / Diwopu, China (ZWWW) 43-54N 087-28E
Jun 14, 2024 - 05:00 PM EDT / 2024.06.14 2100 UTC
Wind: Variable at 2 MPH (2 KT):0
Visibility: greater than 7 mile(s):0
Temperature: 69 F (21 C)
Dew Point: 55 F (13 C)
Relative Humidity: 60%
Pressure (altimeter): 29.83 in. Hg (1010 hPa)
ob: ZWWW 142100Z VRB01MPS CAVOK 21/13 Q1010 NOSIG
cycle: 21

Station Type Date Time Source
ZWWW TAF 2024/06/14 18:03 UTC NOAA